Terminal Aerodrome Forecast
Issued by NWS

Home | Current Version | Previous Version | Text Only | Print | Product List | Glossary On
Versions: 1 2 3 4 5 6 7 8 9 10 11 12 13 14
512
FTAK31 PAJN 302340
TAFAPG
TAF
PAPG 302340Z 0100/0124 07003KT P6SM -SHRA SCT025 BKN035 OVC050
      TEMPO 0100/0102 BKN025
     FM010200 VRB03KT P6SM -SHRA BKN028 OVC040
     FM011600 VRB03KT P6SM VCSH BKN025 BKN060
     FM012100 07005KT P6SM VCSH BKN035 BKN080
      AMD LTD TO CLD VIS AND WIND 0106/0115=

USA.gov is the U.S. government's official web portal to all federal, state and local government web resources and services.